sensor_id;sensor_type;location;lat;lon;timestamp;P1;durP1;ratioP1;P2;durP2;ratioP2
3068;SDS011;1545;51.728;8.796;2024-02-14T00:01:33;16.20;;;8.00;;
3068;SDS011;1545;51.728;8.796;2024-02-14T00:04:02;14.67;;;7.40;;
3068;SDS011;1545;51.728;8.796;2024-02-14T00:06:28;9.63;;;6.73;;
3068;SDS011;1545;51.728;8.796;2024-02-14T00:08:53;14.60;;;7.17;;
3068;SDS011;1545;51.728;8.796;2024-02-14T00:11:19;23.70;;;7.60;;
3068;SDS011;1545;51.728;8.796;2024-02-14T00:13:44;12.10;;;7.10;;
3068;SDS011;1545;51.728;8.796;2024-02-14T00:16:10;11.63;;;6.83;;
3068;SDS011;1545;51.728;8.796;2024-02-14T00:18:35;14.17;;;7.43;;
3068;SDS011;1545;51.728;8.796;2024-02-14T00:21:01;18.77;;;7.03;;
3068;SDS011;1545;51.728;8.796;2024-02-14T00:23:26;12.97;;;7.00;;
3068;SDS011;1545;51.728;8.796;2024-02-14T00:25:52;11.27;;;6.13;;
3068;SDS011;1545;51.728;8.796;2024-02-14T00:28:17;15.17;;;6.27;;
3068;SDS011;1545;51.728;8.796;2024-02-14T00:30:43;13.40;;;6.87;;
3068;SDS011;1545;51.728;8.796;2024-02-14T00:33:08;13.73;;;6.30;;
3068;SDS011;1545;51.728;8.796;2024-02-14T00:35:34;13.33;;;6.07;;
3068;SDS011;1545;51.728;8.796;2024-02-14T00:37:59;14.53;;;6.57;;
3068;SDS011;1545;51.728;8.796;2024-02-14T00:40:25;12.37;;;6.23;;
3068;SDS011;1545;51.728;8.796;2024-02-14T00:42:50;11.80;;;6.37;;
3068;SDS011;1545;51.728;8.796;2024-02-14T00:45:15;12.40;;;6.37;;
3068;SDS011;1545;51.728;8.796;2024-02-14T00:47:41;10.10;;;5.40;;
3068;SDS011;1545;51.728;8.796;2024-02-14T00:50:07;17.53;;;6.13;;
3068;SDS011;1545;51.728;8.796;2024-02-14T00:52:32;12.13;;;6.13;;
3068;SDS011;1545;51.728;8.796;2024-02-14T00:54:58;11.53;;;6.47;;
3068;SDS011;1545;51.728;8.796;2024-02-14T00:57:23;10.70;;;5.60;;
3068;SDS011;1545;51.728;8.796;2024-02-14T00:59:51;11.73;;;6.27;;
3068;SDS011;1545;51.728;8.796;2024-02-14T01:02:17;20.07;;;6.07;;
3068;SDS011;1545;51.728;8.796;2024-02-14T01:04:43;10.97;;;5.80;;
3068;SDS011;1545;51.728;8.796;2024-02-14T01:07:08;15.93;;;6.20;;
3068;SDS011;1545;51.728;8.796;2024-02-14T01:09:34;12.30;;;5.97;;
3068;SDS011;1545;51.728;8.796;2024-02-14T01:12:01;15.83;;;6.17;;
3068;SDS011;1545;51.728;8.796;2024-02-14T01:14:27;14.13;;;5.90;;
3068;SDS011;1545;51.728;8.796;2024-02-14T01:16:52;11.50;;;6.07;;
3068;SDS011;1545;51.728;8.796;2024-02-14T01:19:19;15.03;;;6.20;;
3068;SDS011;1545;51.728;8.796;2024-02-14T01:21:44;12.43;;;6.27;;
3068;SDS011;1545;51.728;8.796;2024-02-14T01:24:13;8.90;;;5.93;;
3068;SDS011;1545;51.728;8.796;2024-02-14T01:26:39;13.97;;;5.97;;
3068;SDS011;1545;51.728;8.796;2024-02-14T01:29:05;10.37;;;5.70;;
3068;SDS011;1545;51.728;8.796;2024-02-14T01:31:31;13.20;;;6.63;;
3068;SDS011;1545;51.728;8.796;2024-02-14T01:33:57;11.83;;;6.70;;
3068;SDS011;1545;51.728;8.796;2024-02-14T01:36:24;11.40;;;6.10;;
3068;SDS011;1545;51.728;8.796;2024-02-14T01:38:49;13.87;;;6.53;;
3068;SDS011;1545;51.728;8.796;2024-02-14T01:41:15;15.07;;;6.43;;
3068;SDS011;1545;51.728;8.796;2024-02-14T01:43:40;11.50;;;6.77;;
3068;SDS011;1545;51.728;8.796;2024-02-14T01:46:06;15.23;;;6.20;;
3068;SDS011;1545;51.728;8.796;2024-02-14T01:48:33;12.10;;;5.50;;
3068;SDS011;1545;51.728;8.796;2024-02-14T01:50:59;12.97;;;5.70;;
3068;SDS011;1545;51.728;8.796;2024-02-14T01:53:26;15.83;;;5.43;;
3068;SDS011;1545;51.728;8.796;2024-02-14T01:55:56;7.73;;;4.93;;
3068;SDS011;1545;51.728;8.796;2024-02-14T01:58:23;11.53;;;5.53;;
3068;SDS011;1545;51.728;8.796;2024-02-14T02:00:50;13.73;;;5.27;;
3068;SDS011;1545;51.728;8.796;2024-02-14T02:03:20;10.50;;;5.43;;
3068;SDS011;1545;51.728;8.796;2024-02-14T02:05:47;13.40;;;5.93;;
3068;SDS011;1545;51.728;8.796;2024-02-14T02:08:13;14.47;;;5.87;;
3068;SDS011;1545;51.728;8.796;2024-02-14T02:10:39;10.80;;;5.50;;
3068;SDS011;1545;51.728;8.796;2024-02-14T02:13:05;19.03;;;6.00;;
3068;SDS011;1545;51.728;8.796;2024-02-14T02:15:31;9.73;;;5.07;;
3068;SDS011;1545;51.728;8.796;2024-02-14T02:17:56;12.60;;;5.47;;
3068;SDS011;1545;51.728;8.796;2024-02-14T02:20:22;11.00;;;5.30;;
3068;SDS011;1545;51.728;8.796;2024-02-14T02:22:47;11.97;;;5.23;;
3068;SDS011;1545;51.728;8.796;2024-02-14T02:25:13;13.00;;;5.20;;
3068;SDS011;1545;51.728;8.796;2024-02-14T02:27:39;9.03;;;5.23;;
3068;SDS011;1545;51.728;8.796;2024-02-14T02:30:05;12.70;;;4.73;;
3068;SDS011;1545;51.728;8.796;2024-02-14T02:32:31;12.37;;;5.10;;
3068;SDS011;1545;51.728;8.796;2024-02-14T02:34:57;8.97;;;5.27;;
3068;SDS011;1545;51.728;8.796;2024-02-14T02:37:23;9.47;;;4.70;;
3068;SDS011;1545;51.728;8.796;2024-02-14T02:39:49;15.70;;;4.90;;
3068;SDS011;1545;51.728;8.796;2024-02-14T02:42:16;10.10;;;4.50;;
3068;SDS011;1545;51.728;8.796;2024-02-14T02:44:45;12.27;;;4.90;;
3068;SDS011;1545;51.728;8.796;2024-02-14T02:47:11;7.87;;;4.53;;
3068;SDS011;1545;51.728;8.796;2024-02-14T02:49:37;7.30;;;4.20;;
3068;SDS011;1545;51.728;8.796;2024-02-14T02:52:03;11.53;;;4.10;;
3068;SDS011;1545;51.728;8.796;2024-02-14T02:54:28;11.33;;;4.17;;
3068;SDS011;1545;51.728;8.796;2024-02-14T02:56:54;9.70;;;4.03;;
3068;SDS011;1545;51.728;8.796;2024-02-14T02:59:19;6.90;;;4.00;;
3068;SDS011;1545;51.728;8.796;2024-02-14T03:01:45;12.00;;;4.47;;
3068;SDS011;1545;51.728;8.796;2024-02-14T03:04:11;9.77;;;4.03;;
3068;SDS011;1545;51.728;8.796;2024-02-14T03:20:07;6.60;;;3.47;;
3068;SDS011;1545;51.728;8.796;2024-02-14T03:22:39;8.70;;;3.27;;
3068;SDS011;1545;51.728;8.796;2024-02-14T03:25:11;7.90;;;3.20;;
3068;SDS011;1545;51.728;8.796;2024-02-14T03:27:39;6.67;;;3.40;;
3068;SDS011;1545;51.728;8.796;2024-02-14T03:30:05;7.43;;;3.00;;
3068;SDS011;1545;51.728;8.796;2024-02-14T03:32:31;6.47;;;2.87;;
3068;SDS011;1545;51.728;8.796;2024-02-14T03:34:56;7.00;;;3.43;;
3068;SDS011;1545;51.728;8.796;2024-02-14T03:37:22;5.70;;;2.90;;
3068;SDS011;1545;51.728;8.796;2024-02-14T03:39:47;7.27;;;3.07;;
3068;SDS011;1545;51.728;8.796;2024-02-14T03:42:13;5.73;;;3.00;;
3068;SDS011;1545;51.728;8.796;2024-02-14T03:44:38;5.23;;;2.97;;
3068;SDS011;1545;51.728;8.796;2024-02-14T03:47:05;9.23;;;3.07;;
3068;SDS011;1545;51.728;8.796;2024-02-14T03:49:31;5.57;;;2.90;;
3068;SDS011;1545;51.728;8.796;2024-02-14T03:51:56;5.37;;;2.97;;
3068;SDS011;1545;51.728;8.796;2024-02-14T03:54:22;5.53;;;2.93;;
3068;SDS011;1545;51.728;8.796;2024-02-14T03:56:48;9.57;;;3.40;;
3068;SDS011;1545;51.728;8.796;2024-02-14T03:59:13;5.30;;;3.10;;
3068;SDS011;1545;51.728;8.796;2024-02-14T04:01:43;4.60;;;2.90;;
3068;SDS011;1545;51.728;8.796;2024-02-14T04:04:10;5.53;;;3.10;;
3068;SDS011;1545;51.728;8.796;2024-02-14T04:06:35;4.33;;;2.60;;
3068;SDS011;1545;51.728;8.796;2024-02-14T04:09:01;5.40;;;2.73;;
3068;SDS011;1545;51.728;8.796;2024-02-14T04:11:26;5.27;;;2.97;;
3068;SDS011;1545;51.728;8.796;2024-02-14T04:13:52;5.87;;;2.70;;
3068;SDS011;1545;51.728;8.796;2024-02-14T04:16:21;6.47;;;2.83;;
3068;SDS011;1545;51.728;8.796;2024-02-14T04:18:46;5.07;;;2.60;;
3068;SDS011;1545;51.728;8.796;2024-02-14T04:21:12;5.30;;;3.20;;
3068;SDS011;1545;51.728;8.796;2024-02-14T04:23:37;4.67;;;2.70;;
3068;SDS011;1545;51.728;8.796;2024-02-14T04:26:05;5.67;;;2.93;;
3068;SDS011;1545;51.728;8.796;2024-02-14T04:28:30;4.57;;;3.03;;
3068;SDS011;1545;51.728;8.796;2024-02-14T04:30:56;6.90;;;3.40;;
3068;SDS011;1545;51.728;8.796;2024-02-14T04:33:22;5.13;;;2.70;;
3068;SDS011;1545;51.728;8.796;2024-02-14T04:35:47;6.43;;;3.30;;
3068;SDS011;1545;51.728;8.796;2024-02-14T04:38:13;7.27;;;3.47;;
3068;SDS011;1545;51.728;8.796;2024-02-14T04:40:38;8.37;;;3.63;;
3068;SDS011;1545;51.728;8.796;2024-02-14T04:43:04;12.40;;;3.77;;
3068;SDS011;1545;51.728;8.796;2024-02-14T04:45:30;7.23;;;3.30;;
3068;SDS011;1545;51.728;8.796;2024-02-14T04:47:55;6.20;;;3.70;;
3068;SDS011;1545;51.728;8.796;2024-02-14T04:50:21;12.00;;;3.97;;
3068;SDS011;1545;51.728;8.796;2024-02-14T04:52:46;12.03;;;3.90;;
3068;SDS011;1545;51.728;8.796;2024-02-14T04:55:12;9.37;;;4.20;;
3068;SDS011;1545;51.728;8.796;2024-02-14T04:57:38;6.80;;;3.77;;
3068;SDS011;1545;51.728;8.796;2024-02-14T05:00:04;8.57;;;4.00;;
3068;SDS011;1545;51.728;8.796;2024-02-14T05:02:30;8.53;;;4.03;;
3068;SDS011;1545;51.728;8.796;2024-02-14T05:04:56;10.60;;;4.23;;
3068;SDS011;1545;51.728;8.796;2024-02-14T05:07:21;7.53;;;4.03;;
3068;SDS011;1545;51.728;8.796;2024-02-14T05:09:47;6.07;;;3.67;;
3068;SDS011;1545;51.728;8.796;2024-02-14T05:12:15;6.53;;;3.47;;
3068;SDS011;1545;51.728;8.796;2024-02-14T05:14:40;6.30;;;3.10;;
3068;SDS011;1545;51.728;8.796;2024-02-14T05:17:07;5.40;;;3.27;;
3068;SDS011;1545;51.728;8.796;2024-02-14T05:19:32;5.67;;;3.20;;
3068;SDS011;1545;51.728;8.796;2024-02-14T05:21:58;7.97;;;3.50;;
3068;SDS011;1545;51.728;8.796;2024-02-14T05:24:24;4.10;;;3.13;;
3068;SDS011;1545;51.728;8.796;2024-02-14T05:26:52;5.47;;;3.27;;
3068;SDS011;1545;51.728;8.796;2024-02-14T05:29:18;5.93;;;3.40;;
3068;SDS011;1545;51.728;8.796;2024-02-14T05:31:46;9.27;;;3.67;;
3068;SDS011;1545;51.728;8.796;2024-02-14T05:34:13;5.13;;;3.20;;
3068;SDS011;1545;51.728;8.796;2024-02-14T05:36:39;5.37;;;3.30;;
3068;SDS011;1545;51.728;8.796;2024-02-14T05:39:05;4.60;;;2.83;;
3068;SDS011;1545;51.728;8.796;2024-02-14T05:41:33;4.63;;;3.00;;
3068;SDS011;1545;51.728;8.796;2024-02-14T05:43:59;4.23;;;2.90;;
3068;SDS011;1545;51.728;8.796;2024-02-14T05:46:25;6.13;;;3.17;;
3068;SDS011;1545;51.728;8.796;2024-02-14T05:48:51;4.60;;;2.50;;
3068;SDS011;1545;51.728;8.796;2024-02-14T05:51:19;3.87;;;2.87;;
3068;SDS011;1545;51.728;8.796;2024-02-14T05:53:45;3.67;;;2.63;;
3068;SDS011;1545;51.728;8.796;2024-02-14T05:56:10;5.70;;;3.30;;
3068;SDS011;1545;51.728;8.796;2024-02-14T05:58:36;4.23;;;2.57;;
3068;SDS011;1545;51.728;8.796;2024-02-14T06:01:01;5.17;;;3.00;;
3068;SDS011;1545;51.728;8.796;2024-02-14T06:03:27;5.73;;;3.10;;
3068;SDS011;1545;51.728;8.796;2024-02-14T06:05:52;8.73;;;3.10;;
3068;SDS011;1545;51.728;8.796;2024-02-14T06:08:18;5.83;;;3.10;;
3068;SDS011;1545;51.728;8.796;2024-02-14T06:10:44;5.47;;;3.20;;
3068;SDS011;1545;51.728;8.796;2024-02-14T06:13:09;6.37;;;3.40;;
3068;SDS011;1545;51.728;8.796;2024-02-14T06:15:35;8.57;;;3.50;;
3068;SDS011;1545;51.728;8.796;2024-02-14T06:18:00;5.57;;;3.60;;
3068;SDS011;1545;51.728;8.796;2024-02-14T06:20:26;5.37;;;3.10;;
3068;SDS011;1545;51.728;8.796;2024-02-14T06:22:51;9.30;;;3.80;;
3068;SDS011;1545;51.728;8.796;2024-02-14T06:25:17;5.93;;;3.40;;
3068;SDS011;1545;51.728;8.796;2024-02-14T06:27:42;5.43;;;3.23;;
3068;SDS011;1545;51.728;8.796;2024-02-14T06:30:08;4.80;;;3.40;;
3068;SDS011;1545;51.728;8.796;2024-02-14T06:32:34;6.50;;;3.33;;
3068;SDS011;1545;51.728;8.796;2024-02-14T06:34:59;5.77;;;3.53;;
3068;SDS011;1545;51.728;8.796;2024-02-14T06:37:25;6.50;;;3.57;;
3068;SDS011;1545;51.728;8.796;2024-02-14T06:39:50;8.73;;;3.87;;
3068;SDS011;1545;51.728;8.796;2024-02-14T06:42:16;6.20;;;3.70;;
3068;SDS011;1545;51.728;8.796;2024-02-14T06:44:42;6.53;;;3.53;;
3068;SDS011;1545;51.728;8.796;2024-02-14T06:47:08;5.23;;;3.20;;
3068;SDS011;1545;51.728;8.796;2024-02-14T06:49:33;6.97;;;3.50;;
3068;SDS011;1545;51.728;8.796;2024-02-14T06:51:58;4.63;;;3.23;;
3068;SDS011;1545;51.728;8.796;2024-02-14T06:54:24;9.97;;;4.13;;
3068;SDS011;1545;51.728;8.796;2024-02-14T06:56:49;8.23;;;3.50;;
3068;SDS011;1545;51.728;8.796;2024-02-14T06:59:15;7.33;;;3.70;;
3068;SDS011;1545;51.728;8.796;2024-02-14T07:01:40;8.80;;;4.00;;
3068;SDS011;1545;51.728;8.796;2024-02-14T07:04:06;6.53;;;3.53;;
3068;SDS011;1545;51.728;8.796;2024-02-14T07:06:31;5.27;;;3.77;;
3068;SDS011;1545;51.728;8.796;2024-02-14T07:08:57;8.27;;;3.70;;
3068;SDS011;1545;51.728;8.796;2024-02-14T07:11:22;6.83;;;3.70;;
3068;SDS011;1545;51.728;8.796;2024-02-14T07:13:49;6.90;;;3.70;;
3068;SDS011;1545;51.728;8.796;2024-02-14T07:16:14;4.90;;;3.57;;
3068;SDS011;1545;51.728;8.796;2024-02-14T07:18:40;5.87;;;3.57;;
3068;SDS011;1545;51.728;8.796;2024-02-14T07:21:06;6.17;;;3.60;;
3068;SDS011;1545;51.728;8.796;2024-02-14T07:23:31;6.23;;;3.40;;
3068;SDS011;1545;51.728;8.796;2024-02-14T07:25:58;5.23;;;3.30;;
3068;SDS011;1545;51.728;8.796;2024-02-14T07:28:24;5.63;;;3.70;;
3068;SDS011;1545;51.728;8.796;2024-02-14T07:30:49;6.13;;;3.70;;
3068;SDS011;1545;51.728;8.796;2024-02-14T07:33:15;7.73;;;3.63;;
3068;SDS011;1545;51.728;8.796;2024-02-14T07:35:41;7.97;;;3.80;;
3068;SDS011;1545;51.728;8.796;2024-02-14T07:38:07;6.37;;;3.93;;
3068;SDS011;1545;51.728;8.796;2024-02-14T07:40:33;9.27;;;3.77;;
3068;SDS011;1545;51.728;8.796;2024-02-14T07:42:59;6.20;;;3.90;;
3068;SDS011;1545;51.728;8.796;2024-02-14T07:45:25;6.20;;;4.03;;
3068;SDS011;1545;51.728;8.796;2024-02-14T07:47:51;7.03;;;3.97;;
3068;SDS011;1545;51.728;8.796;2024-02-14T07:50:17;5.80;;;3.37;;
3068;SDS011;1545;51.728;8.796;2024-02-14T07:52:43;5.53;;;3.50;;
3068;SDS011;1545;51.728;8.796;2024-02-14T07:55:10;5.47;;;3.73;;
3068;SDS011;1545;51.728;8.796;2024-02-14T07:57:37;6.33;;;3.37;;
3068;SDS011;1545;51.728;8.796;2024-02-14T08:00:03;7.97;;;3.27;;
3068;SDS011;1545;51.728;8.796;2024-02-14T08:02:30;5.80;;;3.37;;
3068;SDS011;1545;51.728;8.796;2024-02-14T08:04:56;4.77;;;3.27;;
3068;SDS011;1545;51.728;8.796;2024-02-14T08:07:21;4.60;;;3.30;;
3068;SDS011;1545;51.728;8.796;2024-02-14T08:09:46;5.07;;;3.23;;
3068;SDS011;1545;51.728;8.796;2024-02-14T08:12:12;6.27;;;3.70;;
3068;SDS011;1545;51.728;8.796;2024-02-14T08:14:37;4.50;;;2.90;;
3068;SDS011;1545;51.728;8.796;2024-02-14T08:17:03;4.87;;;3.10;;
3068;SDS011;1545;51.728;8.796;2024-02-14T08:19:29;5.47;;;3.17;;
3068;SDS011;1545;51.728;8.796;2024-02-14T08:21:54;7.53;;;3.20;;
3068;SDS011;1545;51.728;8.796;2024-02-14T08:24:24;5.40;;;3.10;;
3068;SDS011;1545;51.728;8.796;2024-02-14T08:26:50;6.13;;;3.27;;
3068;SDS011;1545;51.728;8.796;2024-02-14T08:29:15;5.77;;;3.30;;
3068;SDS011;1545;51.728;8.796;2024-02-14T08:31:41;5.77;;;3.20;;
3068;SDS011;1545;51.728;8.796;2024-02-14T08:34:06;9.10;;;3.17;;
3068;SDS011;1545;51.728;8.796;2024-02-14T08:36:33;4.87;;;3.13;;
3068;SDS011;1545;51.728;8.796;2024-02-14T08:39:00;7.13;;;3.47;;
3068;SDS011;1545;51.728;8.796;2024-02-14T08:41:26;4.30;;;3.00;;
3068;SDS011;1545;51.728;8.796;2024-02-14T08:43:51;6.90;;;3.30;;
3068;SDS011;1545;51.728;8.796;2024-02-14T08:46:17;4.53;;;2.97;;
3068;SDS011;1545;51.728;8.796;2024-02-14T08:48:43;7.90;;;3.33;;
3068;SDS011;1545;51.728;8.796;2024-02-14T08:51:11;4.40;;;3.17;;
3068;SDS011;1545;51.728;8.796;2024-02-14T08:53:38;6.27;;;3.47;;
3068;SDS011;1545;51.728;8.796;2024-02-14T08:56:03;7.53;;;3.17;;
3068;SDS011;1545;51.728;8.796;2024-02-14T08:58:29;5.87;;;3.57;;
3068;SDS011;1545;51.728;8.796;2024-02-14T09:00:55;4.77;;;3.50;;
3068;SDS011;1545;51.728;8.796;2024-02-14T09:03:20;4.90;;;3.80;;
3068;SDS011;1545;51.728;8.796;2024-02-14T09:05:45;6.13;;;3.80;;
3068;SDS011;1545;51.728;8.796;2024-02-14T09:08:11;5.47;;;3.57;;
3068;SDS011;1545;51.728;8.796;2024-02-14T09:10:37;5.57;;;3.50;;
3068;SDS011;1545;51.728;8.796;2024-02-14T09:13:03;6.23;;;4.17;;
3068;SDS011;1545;51.728;8.796;2024-02-14T09:15:29;6.13;;;3.87;;
3068;SDS011;1545;51.728;8.796;2024-02-14T09:17:56;6.50;;;4.00;;
3068;SDS011;1545;51.728;8.796;2024-02-14T09:20:22;6.57;;;3.90;;
3068;SDS011;1545;51.728;8.796;2024-02-14T09:22:47;7.57;;;3.80;;
3068;SDS011;1545;51.728;8.796;2024-02-14T09:25:13;7.90;;;4.40;;
3068;SDS011;1545;51.728;8.796;2024-02-14T09:27:39;6.00;;;3.27;;
3068;SDS011;1545;51.728;8.796;2024-02-14T09:30:06;8.97;;;4.17;;
3068;SDS011;1545;51.728;8.796;2024-02-14T09:32:32;5.17;;;3.77;;
3068;SDS011;1545;51.728;8.796;2024-02-14T09:34:58;5.23;;;3.70;;
3068;SDS011;1545;51.728;8.796;2024-02-14T09:37:24;6.63;;;4.17;;
3068;SDS011;1545;51.728;8.796;2024-02-14T09:39:50;4.70;;;3.50;;
3068;SDS011;1545;51.728;8.796;2024-02-14T09:42:16;5.53;;;3.73;;
3068;SDS011;1545;51.728;8.796;2024-02-14T09:44:48;4.87;;;3.53;;
3068;SDS011;1545;51.728;8.796;2024-02-14T09:47:17;6.93;;;3.50;;
3068;SDS011;1545;51.728;8.796;2024-02-14T09:49:43;6.20;;;3.20;;
3068;SDS011;1545;51.728;8.796;2024-02-14T09:52:09;5.63;;;3.67;;
3068;SDS011;1545;51.728;8.796;2024-02-14T09:54:37;5.13;;;3.17;;
3068;SDS011;1545;51.728;8.796;2024-02-14T09:57:04;4.70;;;3.17;;
3068;SDS011;1545;51.728;8.796;2024-02-14T09:59:30;5.00;;;3.23;;
3068;SDS011;1545;51.728;8.796;2024-02-14T10:01:57;5.23;;;3.57;;
3068;SDS011;1545;51.728;8.796;2024-02-14T10:04:22;7.97;;;3.10;;
3068;SDS011;1545;51.728;8.796;2024-02-14T10:06:49;7.13;;;3.80;;
3068;SDS011;1545;51.728;8.796;2024-02-14T10:09:22;5.30;;;3.70;;
3068;SDS011;1545;51.728;8.796;2024-02-14T10:11:48;4.00;;;3.00;;
3068;SDS011;1545;51.728;8.796;2024-02-14T10:14:14;5.77;;;3.40;;
3068;SDS011;1545;51.728;8.796;2024-02-14T10:16:39;5.93;;;3.40;;
3068;SDS011;1545;51.728;8.796;2024-02-14T10:19:13;6.13;;;3.63;;
3068;SDS011;1545;51.728;8.796;2024-02-14T10:21:43;5.10;;;3.60;;
3068;SDS011;1545;51.728;8.796;2024-02-14T10:24:08;4.60;;;3.27;;
3068;SDS011;1545;51.728;8.796;2024-02-14T10:26:35;4.13;;;3.20;;
3068;SDS011;1545;51.728;8.796;2024-02-14T10:29:05;5.07;;;3.47;;
3068;SDS011;1545;51.728;8.796;2024-02-14T10:31:31;6.83;;;3.90;;
3068;SDS011;1545;51.728;8.796;2024-02-14T10:33:56;4.77;;;3.40;;
3068;SDS011;1545;51.728;8.796;2024-02-14T10:36:23;4.67;;;3.30;;
3068;SDS011;1545;51.728;8.796;2024-02-14T10:38:49;5.37;;;3.40;;
3068;SDS011;1545;51.728;8.796;2024-02-14T10:41:15;7.33;;;3.63;;
3068;SDS011;1545;51.728;8.796;2024-02-14T10:43:41;5.83;;;3.80;;
3068;SDS011;1545;51.728;8.796;2024-02-14T10:46:19;4.40;;;3.30;;
3068;SDS011;1545;51.728;8.796;2024-02-14T10:48:46;5.43;;;3.60;;
3068;SDS011;1545;51.728;8.796;2024-02-14T10:51:12;7.23;;;3.87;;
3068;SDS011;1545;51.728;8.796;2024-02-14T10:53:40;4.93;;;3.80;;
3068;SDS011;1545;51.728;8.796;2024-02-14T10:56:10;4.10;;;3.50;;
3068;SDS011;1545;51.728;8.796;2024-02-14T10:58:41;4.50;;;3.73;;
3068;SDS011;1545;51.728;8.796;2024-02-14T11:01:08;4.83;;;3.93;;
3068;SDS011;1545;51.728;8.796;2024-02-14T11:03:34;5.30;;;4.00;;
3068;SDS011;1545;51.728;8.796;2024-02-14T11:06:01;8.30;;;4.30;;
3068;SDS011;1545;51.728;8.796;2024-02-14T11:08:29;5.73;;;4.20;;
3068;SDS011;1545;51.728;8.796;2024-02-14T11:10:56;9.10;;;4.33;;
3068;SDS011;1545;51.728;8.796;2024-02-14T11:13:27;7.37;;;4.33;;
3068;SDS011;1545;51.728;8.796;2024-02-14T11:15:56;8.87;;;4.60;;
3068;SDS011;1545;51.728;8.796;2024-02-14T11:18:25;8.10;;;4.40;;
3068;SDS011;1545;51.728;8.796;2024-02-14T11:20:52;5.73;;;4.53;;
3068;SDS011;1545;51.728;8.796;2024-02-14T11:23:21;8.93;;;4.30;;
3068;SDS011;1545;51.728;8.796;2024-02-14T11:25:47;8.63;;;5.07;;
3068;SDS011;1545;51.728;8.796;2024-02-14T11:28:19;7.00;;;4.57;;
3068;SDS011;1545;51.728;8.796;2024-02-14T11:30:49;10.20;;;4.67;;
3068;SDS011;1545;51.728;8.796;2024-02-14T11:33:18;9.87;;;5.10;;
3068;SDS011;1545;51.728;8.796;2024-02-14T11:35:49;7.10;;;4.60;;
3068;SDS011;1545;51.728;8.796;2024-02-14T11:38:16;7.07;;;4.50;;
3068;SDS011;1545;51.728;8.796;2024-02-14T11:40:42;10.00;;;4.67;;
3068;SDS011;1545;51.728;8.796;2024-02-14T11:43:12;6.13;;;4.03;;
3068;SDS011;1545;51.728;8.796;2024-02-14T11:45:45;5.33;;;3.60;;
3068;SDS011;1545;51.728;8.796;2024-02-14T11:48:14;4.77;;;3.63;;
3068;SDS011;1545;51.728;8.796;2024-02-14T11:50:41;9.03;;;3.60;;
3068;SDS011;1545;51.728;8.796;2024-02-14T11:53:08;5.57;;;4.10;;
3068;SDS011;1545;51.728;8.796;2024-02-14T11:55:36;7.80;;;3.90;;
3068;SDS011;1545;51.728;8.796;2024-02-14T11:58:06;5.83;;;3.73;;
3068;SDS011;1545;51.728;8.796;2024-02-14T12:00:36;7.57;;;4.63;;
3068;SDS011;1545;51.728;8.796;2024-02-14T12:03:03;10.07;;;5.30;;
3068;SDS011;1545;51.728;8.796;2024-02-14T12:05:32;7.87;;;4.90;;
3068;SDS011;1545;51.728;8.796;2024-02-14T12:07:58;9.90;;;5.27;;
3068;SDS011;1545;51.728;8.796;2024-02-14T12:10:24;9.57;;;6.03;;
3068;SDS011;1545;51.728;8.796;2024-02-14T12:12:50;10.47;;;5.90;;
3068;SDS011;1545;51.728;8.796;2024-02-14T12:15:16;11.43;;;6.73;;
3068;SDS011;1545;51.728;8.796;2024-02-14T12:17:42;9.63;;;6.07;;
3068;SDS011;1545;51.728;8.796;2024-02-14T12:20:10;8.37;;;5.67;;
3068;SDS011;1545;51.728;8.796;2024-02-14T12:22:39;9.73;;;5.93;;
3068;SDS011;1545;51.728;8.796;2024-02-14T12:25:05;10.93;;;5.80;;
3068;SDS011;1545;51.728;8.796;2024-02-14T12:27:32;9.03;;;5.80;;
3068;SDS011;1545;51.728;8.796;2024-02-14T12:29:59;10.40;;;5.77;;
3068;SDS011;1545;51.728;8.796;2024-02-14T12:32:27;7.13;;;5.63;;
3068;SDS011;1545;51.728;8.796;2024-02-14T12:34:55;10.70;;;6.20;;
3068;SDS011;1545;51.728;8.796;2024-02-14T12:37:21;13.63;;;6.60;;
3068;SDS011;1545;51.728;8.796;2024-02-14T12:39:47;8.23;;;5.33;;
3068;SDS011;1545;51.728;8.796;2024-02-14T12:42:12;10.47;;;6.07;;
3068;SDS011;1545;51.728;8.796;2024-02-14T12:44:38;9.33;;;6.33;;
3068;SDS011;1545;51.728;8.796;2024-02-14T12:47:03;12.50;;;6.33;;
3068;SDS011;1545;51.728;8.796;2024-02-14T12:49:29;12.13;;;6.60;;
3068;SDS011;1545;51.728;8.796;2024-02-14T12:51:57;11.00;;;5.73;;
3068;SDS011;1545;51.728;8.796;2024-02-14T12:54:23;10.30;;;6.10;;
3068;SDS011;1545;51.728;8.796;2024-02-14T12:56:48;12.67;;;6.07;;
3068;SDS011;1545;51.728;8.796;2024-02-14T12:59:14;9.27;;;5.60;;
3068;SDS011;1545;51.728;8.796;2024-02-14T13:01:43;7.67;;;5.13;;
3068;SDS011;1545;51.728;8.796;2024-02-14T13:04:08;8.83;;;5.03;;
3068;SDS011;1545;51.728;8.796;2024-02-14T13:06:34;10.57;;;5.87;;
3068;SDS011;1545;51.728;8.796;2024-02-14T13:09:01;8.97;;;5.57;;
3068;SDS011;1545;51.728;8.796;2024-02-14T13:11:27;10.50;;;5.37;;
3068;SDS011;1545;51.728;8.796;2024-02-14T13:13:53;9.17;;;5.40;;
3068;SDS011;1545;51.728;8.796;2024-02-14T13:16:19;11.77;;;5.63;;
3068;SDS011;1545;51.728;8.796;2024-02-14T13:18:44;11.57;;;5.27;;
3068;SDS011;1545;51.728;8.796;2024-02-14T13:21:10;10.00;;;5.40;;
3068;SDS011;1545;51.728;8.796;2024-02-14T13:23:35;11.20;;;5.33;;
3068;SDS011;1545;51.728;8.796;2024-02-14T13:26:01;10.60;;;5.57;;
3068;SDS011;1545;51.728;8.796;2024-02-14T13:28:28;10.07;;;5.67;;
3068;SDS011;1545;51.728;8.796;2024-02-14T13:30:54;11.37;;;5.30;;
3068;SDS011;1545;51.728;8.796;2024-02-14T13:33:19;8.30;;;5.63;;
3068;SDS011;1545;51.728;8.796;2024-02-14T13:35:45;8.67;;;4.93;;
3068;SDS011;1545;51.728;8.796;2024-02-14T13:38:10;8.63;;;5.00;;
3068;SDS011;1545;51.728;8.796;2024-02-14T13:40:36;8.07;;;5.00;;
3068;SDS011;1545;51.728;8.796;2024-02-14T13:43:02;5.73;;;4.57;;
3068;SDS011;1545;51.728;8.796;2024-02-14T13:45:30;7.43;;;4.60;;
3068;SDS011;1545;51.728;8.796;2024-02-14T13:48:07;9.73;;;4.73;;
3068;SDS011;1545;51.728;8.796;2024-02-14T13:50:33;10.60;;;4.07;;
3068;SDS011;1545;51.728;8.796;2024-02-14T13:52:59;9.33;;;4.00;;
3068;SDS011;1545;51.728;8.796;2024-02-14T13:55:24;8.27;;;4.40;;
3068;SDS011;1545;51.728;8.796;2024-02-14T13:57:50;6.53;;;4.40;;
3068;SDS011;1545;51.728;8.796;2024-02-14T14:00:16;9.83;;;4.30;;
3068;SDS011;1545;51.728;8.796;2024-02-14T14:02:41;8.43;;;4.17;;
3068;SDS011;1545;51.728;8.796;2024-02-14T14:05:08;12.50;;;4.50;;
3068;SDS011;1545;51.728;8.796;2024-02-14T14:07:35;8.67;;;4.00;;
3068;SDS011;1545;51.728;8.796;2024-02-14T14:10:04;9.63;;;3.87;;
3068;SDS011;1545;51.728;8.796;2024-02-14T14:12:30;10.57;;;6.00;;
3068;SDS011;1545;51.728;8.796;2024-02-14T14:14:56;6.37;;;3.90;;
3068;SDS011;1545;51.728;8.796;2024-02-14T14:17:22;9.10;;;4.67;;
3068;SDS011;1545;51.728;8.796;2024-02-14T14:19:47;6.70;;;4.03;;
3068;SDS011;1545;51.728;8.796;2024-02-14T14:22:14;7.50;;;4.03;;
3068;SDS011;1545;51.728;8.796;2024-02-14T14:24:41;7.20;;;3.57;;
3068;SDS011;1545;51.728;8.796;2024-02-14T14:27:06;8.77;;;4.70;;
3068;SDS011;1545;51.728;8.796;2024-02-14T14:29:39;8.13;;;4.20;;
3068;SDS011;1545;51.728;8.796;2024-02-14T14:32:06;7.67;;;4.00;;
3068;SDS011;1545;51.728;8.796;2024-02-14T14:34:32;7.93;;;4.20;;
3068;SDS011;1545;51.728;8.796;2024-02-14T14:36:58;13.77;;;4.43;;
3068;SDS011;1545;51.728;8.796;2024-02-14T14:39:23;5.40;;;3.63;;
3068;SDS011;1545;51.728;8.796;2024-02-14T14:41:49;5.73;;;3.80;;
3068;SDS011;1545;51.728;8.796;2024-02-14T14:44:16;15.63;;;8.30;;
3068;SDS011;1545;51.728;8.796;2024-02-14T14:46:41;4.77;;;3.67;;
3068;SDS011;1545;51.728;8.796;2024-02-14T14:49:10;7.37;;;4.07;;
3068;SDS011;1545;51.728;8.796;2024-02-14T14:51:36;12.87;;;4.00;;
3068;SDS011;1545;51.728;8.796;2024-02-14T14:54:03;11.97;;;4.43;;
3068;SDS011;1545;51.728;8.796;2024-02-14T14:56:30;10.77;;;5.60;;
3068;SDS011;1545;51.728;8.796;2024-02-14T14:58:55;6.13;;;4.13;;
3068;SDS011;1545;51.728;8.796;2024-02-14T15:01:21;7.30;;;4.07;;
3068;SDS011;1545;51.728;8.796;2024-02-14T15:03:47;7.53;;;4.27;;
3068;SDS011;1545;51.728;8.796;2024-02-14T15:06:12;5.73;;;3.20;;
3068;SDS011;1545;51.728;8.796;2024-02-14T15:08:40;5.37;;;3.20;;
3068;SDS011;1545;51.728;8.796;2024-02-14T15:11:08;7.67;;;4.30;;
3068;SDS011;1545;51.728;8.796;2024-02-14T15:13:34;5.53;;;3.57;;
3068;SDS011;1545;51.728;8.796;2024-02-14T15:15:59;8.43;;;3.37;;
3068;SDS011;1545;51.728;8.796;2024-02-14T15:18:28;10.40;;;3.70;;
3068;SDS011;1545;51.728;8.796;2024-02-14T15:20:53;7.27;;;3.47;;